Gerd Maersk — OYGM2 — position and weather

sailwx.info

Track history (hours):
 
Tides and Currents Weather Stations Pressure Air Temp Water Temp Dewpoint Dewpoint Depression Visibility Wind Speed Wind Dir Waves Ship Positions

Gerd Maersk

Last reported at 2016-Aug-25 10:33 UTC. Time now 2016-Aug-25 11:32 UTC.
Position N 33°45' W 118°13'.

Length 367 m; draft 14 m.

Type: Cargo ship. MMSI: 220415000.

Date/timePositionNaut miles runAvg speedWind from/ knotsBaromVisibWave heightAir tempDewpointWater temp
2016-Aug-25 10:33N 33°45' W 118°13'7 7.4
2016-Aug-25 09:33N 33°37' W 118°13'9 9.5
2016-Aug-25 08:33N 33°38' W 118°24'1211.4
2016-Aug-25 07:30N 33°44' W 118°37'1111.3
2016-Aug-25 06:33N 33°49' W 118°48'2612.8
2016-Aug-25 04:33N 34°02' W 119°15'1515.3
2016-Aug-25 03:34N 34°06' W 119°32'1515.2
2016-Aug-25 02:34N 34°10' W 119°50'4915.2
2016-Aug-24 23:21N 34°23' W 120°47'1215.0
2016-Aug-24 22:33N 34°24' W 121°02'3015.0
2016-Aug-24 20:33N 34°24' W 121°38'1915.0
2016-Aug-24 19:17N 34°24' W 122°01'1115.0
2016-Aug-24 18:33N 34°24' W 122°14'1514.6
2016-Aug-24 17:34N 34°25' W 122°32'1411.5
2016-Aug-24 16:22N 34°25' W 122°48'1011.7
2016-Aug-24 15:33N 34°25' W 123°00'6614.8
2016-Aug-24 11:04N 34°24' W 124°20'1117.6
2016-Aug-24 10:28N 34°24' W 124°33'1617.4
2016-Aug-24 09:33N 34°25' W 124°52'  
Track history (hours):
 
Tides and Currents Weather Stations Pressure Air Temp Water Temp Dewpoint Dewpoint Depression Visibility Wind Speed Wind Dir Waves Ship Positions

Gerd Maersk

Last reported at 2016-Aug-25 10:33 UTC. Time now 2016-Aug-25 11:32 UTC.
Position N 33°45' W 118°13'.

Length 367 m; draft 14 m.

Type: Cargo ship. MMSI: 220415000.

Date/timePositionNaut miles runAvg speedWind from/ knotsBaromVisibWave heightAir tempDewpointWater temp
2016-Aug-25 10:33N 33°45' W 118°13'7 7.4
2016-Aug-25 09:33N 33°37' W 118°13'9 9.5
2016-Aug-25 08:33N 33°38' W 118°24'1211.4
2016-Aug-25 07:30N 33°44' W 118°37'1111.3
2016-Aug-25 06:33N 33°49' W 118°48'2612.8
2016-Aug-25 04:33N 34°02' W 119°15'1515.3
2016-Aug-25 03:34N 34°06' W 119°32'1515.2
2016-Aug-25 02:34N 34°10' W 119°50'4915.2
2016-Aug-24 23:21N 34°23' W 120°47'1215.0
2016-Aug-24 22:33N 34°24' W 121°02'3015.0
2016-Aug-24 20:33N 34°24' W 121°38'1915.0
2016-Aug-24 19:17N 34°24' W 122°01'1115.0
2016-Aug-24 18:33N 34°24' W 122°14'1514.6
2016-Aug-24 17:34N 34°25' W 122°32'1411.5
2016-Aug-24 16:22N 34°25' W 122°48'1011.7
2016-Aug-24 15:33N 34°25' W 123°00'6614.8
2016-Aug-24 11:04N 34°24' W 124°20'1117.6
2016-Aug-24 10:28N 34°24' W 124°33'1617.4
2016-Aug-24 09:33N 34°25' W 124°52'  

Dump ship's entire track history